createdAt,value
2019-01-20T00:04:30.818Z,101908.72
2019-01-20T00:06:59.872Z,101909.02
2019-01-20T00:09:28.930Z,101909.14
2019-01-20T00:11:59.050Z,101899.94
2019-01-20T00:14:28.098Z,101895.61
2019-01-20T00:16:57.150Z,101900.01
2019-01-20T00:19:26.237Z,101888.95
2019-01-20T00:21:55.287Z,101885.48
2019-01-20T00:24:24.349Z,101890.48
2019-01-20T00:26:53.601Z,101892.97
2019-01-20T00:29:22.657Z,101893.20
2019-01-20T00:31:51.695Z,101898.90
2019-01-20T00:34:20.941Z,101895.27
2019-01-20T00:36:49.915Z,101903.67
2019-01-20T00:39:18.963Z,101900.16
2019-01-20T00:41:48.044Z,101897.36
2019-01-20T00:44:17.098Z,101895.72
2019-01-20T00:46:46.145Z,101894.92
2019-01-20T00:49:15.257Z,101886.52
2019-01-20T00:51:44.317Z,101889.84
2019-01-20T00:54:13.371Z,101885.49
2019-01-20T00:56:42.437Z,101885.01
2019-01-20T00:59:11.483Z,101890.92
2019-01-20T01:01:40.530Z,101892.91
2019-01-20T01:04:09.608Z,101890.44
2019-01-20T01:06:38.660Z,101890.92
2019-01-20T01:09:07.750Z,101894.15
2019-01-20T01:11:36.857Z,101895.36
2019-01-20T01:14:06.753Z,101889.12
2019-01-20T01:16:35.802Z,101889.41
2019-01-20T01:19:04.880Z,101895.92
2019-01-20T01:21:33.934Z,101892.39
2019-01-20T01:24:02.982Z,101892.70
2019-01-20T01:26:32.073Z,101888.34
2019-01-20T01:29:01.129Z,101886.41
2019-01-20T01:31:31.251Z,101888.28
2019-01-20T01:34:01.747Z,101887.26
2019-01-20T01:36:30.571Z,101888.59
2019-01-20T01:38:59.604Z,101881.63
2019-01-20T01:41:28.689Z,101888.29
2019-01-20T01:43:57.749Z,101884.80
2019-01-20T01:46:26.802Z,101887.09
2019-01-20T01:48:55.875Z,101886.41
2019-01-20T01:51:24.942Z,101886.05
2019-01-20T01:53:53.987Z,101888.12
2019-01-20T01:56:23.083Z,101886.93
2019-01-20T01:58:52.131Z,101888.89
2019-01-20T02:01:21.190Z,101883.47
2019-01-20T02:03:50.275Z,101878.38
2019-01-20T02:06:19.323Z,101880.13
2019-01-20T02:08:48.381Z,101882.55
2019-01-20T02:11:17.541Z,101871.63
2019-01-20T02:13:46.590Z,101876.11
2019-01-20T02:16:15.640Z,101872.22
2019-01-20T02:18:44.811Z,101871.07
2019-01-20T02:21:13.860Z,101871.28
2019-01-20T02:23:42.916Z,101876.76
2019-01-20T02:26:13.035Z,101871.41
2019-01-20T02:28:42.086Z,101871.07
2019-01-20T02:31:11.157Z,101872.02
2019-01-20T02:33:40.228Z,101872.34
2019-01-20T02:36:09.274Z,101862.62
2019-01-20T02:38:38.327Z,101860.73
2019-01-20T02:41:07.425Z,101865.02
2019-01-20T02:43:36.473Z,101860.67
2019-01-20T02:46:05.550Z,101866.45
2019-01-20T02:48:34.634Z,101861.00
2019-01-20T02:51:03.699Z,101857.95
2019-01-20T02:53:32.755Z,101853.35
2019-01-20T02:56:01.838Z,101851.77
2019-01-20T02:58:30.901Z,101859.16
2019-01-20T03:00:59.953Z,101856.09
2019-01-20T03:03:29.069Z,101860.11
2019-01-20T03:05:58.129Z,101857.61
2019-01-20T03:08:27.179Z,101855.98
2019-01-20T03:10:56.478Z,101854.58
2019-01-20T03:13:25.532Z,101860.53
2019-01-20T03:15:54.593Z,101860.50
2019-01-20T03:18:23.686Z,101868.66
2019-01-20T03:20:52.746Z,101871.21
2019-01-20T03:23:21.803Z,101864.47
2019-01-20T03:25:50.912Z,101856.47
2019-01-20T03:28:19.977Z,101861.09
2019-01-20T03:30:49.054Z,101858.50
2019-01-20T03:33:18.144Z,101865.39
2019-01-20T03:35:48.203Z,101863.33
2019-01-20T03:38:17.268Z,101857.59
2019-01-20T03:40:46.339Z,101857.61
2019-01-20T03:43:15.411Z,101857.96
2019-01-20T03:45:56.778Z,101854.48
2019-01-20T03:48:25.836Z,101855.72
2019-01-20T03:50:54.900Z,101854.31
2019-01-20T03:53:23.996Z,101854.95
2019-01-20T03:55:53.074Z,101859.43
2019-01-20T03:58:22.143Z,101848.66
2019-01-20T04:00:51.233Z,101850.86
2019-01-20T04:03:20.297Z,101852.97
2019-01-20T04:05:49.357Z,101849.65
2019-01-20T04:08:18.468Z,101852.78
2019-01-20T04:10:47.583Z,101843.52
2019-01-20T04:13:16.645Z,101845.08
2019-01-20T04:15:45.732Z,101840.37
2019-01-20T04:18:14.798Z,101841.67
2019-01-20T04:20:43.848Z,101847.44
2019-01-20T04:23:12.940Z,101844.15
2019-01-20T04:25:42.003Z,101840.42
2019-01-20T04:28:11.069Z,101840.10
2019-01-20T04:30:40.178Z,101840.30
2019-01-20T04:33:09.237Z,101839.32
2019-01-20T04:35:38.321Z,101837.55
2019-01-20T04:38:07.403Z,101838.70
2019-01-20T04:40:36.474Z,101831.19
2019-01-20T04:43:05.525Z,101835.94
2019-01-20T04:45:34.611Z,101832.23
2019-01-20T04:48:03.685Z,101833.69
2019-01-20T04:50:32.749Z,101822.21
2019-01-20T04:53:01.863Z,101828.70
2019-01-20T04:55:30.924Z,101819.61
2019-01-20T04:57:59.986Z,101817.63
2019-01-20T05:00:29.074Z,101819.08
2019-01-20T05:02:58.136Z,101814.38
2019-01-20T05:05:27.218Z,101816.90
2019-01-20T05:07:56.303Z,101818.80
2019-01-20T05:10:25.360Z,101817.78
2019-01-20T05:12:54.408Z,101821.11
2019-01-20T05:15:23.690Z,101818.22
2019-01-20T05:17:52.748Z,101812.72
2019-01-20T05:20:21.820Z,101812.83
2019-01-20T05:22:50.916Z,101813.13
2019-01-20T05:25:19.990Z,101805.97
2019-01-20T05:27:49.046Z,101811.98
2019-01-20T05:30:18.136Z,101807.48
2019-01-20T05:32:47.216Z,101809.39
2019-01-20T05:35:16.276Z,101814.02
2019-01-20T05:37:45.390Z,101809.20
2019-01-20T05:40:14.457Z,101799.64
2019-01-20T05:42:46.504Z,101812.36
2019-01-20T05:45:12.616Z,101810.77
2019-01-20T05:47:41.684Z,101817.37
2019-01-20T05:50:10.776Z,101810.57
2019-01-20T05:52:39.962Z,101810.84
2019-01-20T05:55:11.465Z,101811.59
2019-01-20T05:57:40.528Z,101813.70
2019-01-20T06:00:09.684Z,101809.17
2019-01-20T06:02:38.746Z,101806.70
2019-01-20T06:05:07.814Z,101803.03
2019-01-20T06:07:36.996Z,101799.70
2019-01-20T06:10:06.062Z,101800.56
2019-01-20T06:12:35.143Z,101798.45
2019-01-20T06:15:04.247Z,101790.16
2019-01-20T06:17:33.314Z,101791.68
2019-01-20T06:20:02.394Z,101793.64
2019-01-20T06:22:31.663Z,101791.44
2019-01-20T06:25:01.520Z,101790.15
2019-01-20T06:27:30.555Z,101791.68
2019-01-20T06:29:59.689Z,101791.05
2019-01-20T06:32:28.756Z,101789.42
2019-01-20T06:34:57.826Z,101783.48
2019-01-20T06:37:26.910Z,101791.59
2019-01-20T06:39:55.976Z,101799.48
2019-01-20T06:42:25.058Z,101799.53
2019-01-20T06:44:54.204Z,101805.30
2019-01-20T06:47:23.267Z,101802.88
2019-01-20T06:49:52.327Z,101808.12
2019-01-20T06:52:21.431Z,101810.05
2019-01-20T06:54:50.493Z,101812.44
2019-01-20T06:57:19.563Z,101808.30
2019-01-20T06:59:48.657Z,101815.46
2019-01-20T07:02:17.736Z,101810.42
2019-01-20T07:04:46.802Z,101816.83
2019-01-20T07:07:15.932Z,101818.23
2019-01-20T07:09:45.003Z,101825.23
2019-01-20T07:12:14.081Z,101808.67
2019-01-20T07:14:43.182Z,101807.78
2019-01-20T07:17:12.251Z,101818.88
2019-01-20T07:19:41.317Z,101821.38
2019-01-20T07:22:10.435Z,101830.20
2019-01-20T07:24:39.497Z,101833.75
2019-01-20T07:27:08.566Z,101823.23
2019-01-20T07:29:37.682Z,101822.84
2019-01-20T07:32:06.755Z,101816.00
2019-01-20T07:34:35.818Z,101824.97
2019-01-20T07:37:04.906Z,101824.90
2019-01-20T07:39:33.980Z,101831.61
2019-01-20T07:42:03.038Z,101832.63
2019-01-20T07:44:32.135Z,101842.02
2019-01-20T07:47:01.183Z,101837.81
2019-01-20T07:49:30.249Z,101841.73
2019-01-20T07:51:59.386Z,101843.77
2019-01-20T07:54:28.448Z,101840.83
2019-01-20T07:56:57.513Z,101842.02
2019-01-20T07:59:26.609Z,101837.94
2019-01-20T08:01:55.664Z,101840.05
2019-01-20T08:04:24.724Z,101837.91
2019-01-20T08:06:53.813Z,101845.92
2019-01-20T08:09:22.874Z,101846.52
2019-01-20T08:11:51.941Z,101838.56
2019-01-20T08:14:21.036Z,101845.28
2019-01-20T08:16:50.097Z,101847.55
2019-01-20T08:19:19.162Z,101836.48
2019-01-20T08:21:48.280Z,101849.13
2019-01-20T08:24:17.333Z,101847.74
2019-01-20T08:26:48.016Z,101853.84
2019-01-20T08:29:15.467Z,101849.47
2019-01-20T08:31:44.509Z,101844.39
2019-01-20T08:34:13.558Z,101851.00
2019-01-20T08:36:42.664Z,101842.39
2019-01-20T08:39:11.713Z,101853.38
2019-01-20T08:41:40.778Z,101849.21
2019-01-20T08:44:09.858Z,101852.81
2019-01-20T08:46:38.921Z,101852.75
2019-01-20T08:49:07.981Z,101854.65
2019-01-20T08:51:37.061Z,101859.09
2019-01-20T08:54:06.123Z,101853.64
2019-01-20T08:56:35.185Z,101849.86
2019-01-20T08:59:04.284Z,101859.25
2019-01-20T09:01:33.375Z,101850.63
2019-01-20T09:04:02.430Z,101860.53
2019-01-20T09:06:31.512Z,101862.28
2019-01-20T09:09:00.570Z,101858.41
2019-01-20T09:11:29.632Z,101856.69
2019-01-20T09:13:58.720Z,101862.58
2019-01-20T09:16:27.780Z,101867.02
2019-01-20T09:18:56.902Z,101863.84
2019-01-20T09:21:26.075Z,101867.39
2019-01-20T09:23:55.133Z,101872.28
2019-01-20T09:26:24.189Z,101871.28
2019-01-20T09:28:53.277Z,101876.59
2019-01-20T09:31:22.336Z,101874.00
2019-01-20T09:33:51.398Z,101874.80
2019-01-20T09:36:20.617Z,101870.64
2019-01-20T09:38:49.888Z,101865.17
2019-01-20T09:41:18.946Z,101869.19
2019-01-20T09:43:51.643Z,101868.78
2019-01-20T09:46:20.688Z,101867.39
2019-01-20T09:48:49.747Z,101869.36
2019-01-20T09:51:18.824Z,101863.63
2019-01-20T09:53:47.881Z,101868.20
2019-01-20T09:56:16.937Z,101874.30
2019-01-20T09:58:46.041Z,101870.57
2019-01-20T10:01:15.083Z,101859.95
2019-01-20T10:03:44.137Z,101863.84
2019-01-20T10:06:23.372Z,101856.48
2019-01-20T10:08:52.423Z,101855.02
2019-01-20T10:11:21.478Z,101853.95
2019-01-20T10:13:54.805Z,101837.25
2019-01-20T10:16:19.618Z,101842.08
2019-01-20T10:18:48.671Z,101825.38
2019-01-20T10:21:17.973Z,101835.08
2019-01-20T10:23:47.037Z,101834.27
2019-01-20T10:26:16.096Z,101834.89
2019-01-20T10:28:45.178Z,101824.95
2019-01-20T10:31:14.236Z,101833.62
2019-01-20T10:33:43.383Z,101830.19
2019-01-20T10:36:12.480Z,101837.32
2019-01-20T10:38:41.528Z,101824.72
2019-01-20T10:41:10.600Z,101829.38
2019-01-20T10:43:39.873Z,101833.22
2019-01-20T10:46:08.927Z,101837.59
2019-01-20T10:48:37.979Z,101833.31
2019-01-20T10:51:07.152Z,101828.97
2019-01-20T10:53:36.210Z,101830.16
2019-01-20T10:56:05.261Z,101827.23
2019-01-20T10:58:34.337Z,101830.77
2019-01-20T11:01:03.400Z,101829.56
2019-01-20T11:03:32.463Z,101830.25
2019-01-20T11:06:01.561Z,101829.55
2019-01-20T11:08:30.626Z,101841.95
2019-01-20T11:10:59.675Z,101836.25
2019-01-20T11:13:28.756Z,101837.77
2019-01-20T11:16:02.671Z,101835.20
2019-01-20T11:18:31.753Z,101838.22
2019-01-20T11:21:00.798Z,101833.38
2019-01-20T11:23:29.854Z,101836.80
2019-01-20T11:25:58.969Z,101834.55
2019-01-20T11:28:28.026Z,101836.83
2019-01-20T11:30:57.091Z,101834.33
2019-01-20T11:33:26.175Z,101840.55
2019-01-20T11:35:55.227Z,101842.89
2019-01-20T11:38:24.283Z,101848.03
2019-01-20T11:40:53.590Z,101841.53
2019-01-20T11:43:22.654Z,101845.01
2019-01-20T11:45:51.710Z,101836.02
2019-01-20T11:48:20.821Z,101837.97
2019-01-20T11:50:49.852Z,101840.66
2019-01-20T11:53:18.912Z,101841.72
2019-01-20T11:55:47.987Z,101844.02
2019-01-20T11:58:17.047Z,101842.20
2019-01-20T12:00:46.133Z,101838.56
2019-01-20T12:03:15.226Z,101838.08
2019-01-20T12:05:44.294Z,101838.81
2019-01-20T12:08:13.353Z,101841.02
2019-01-20T12:10:42.433Z,101840.56
2019-01-20T12:13:11.487Z,101839.44
2019-01-20T12:15:40.550Z,101844.85
2019-01-20T12:18:09.631Z,101838.95
2019-01-20T12:20:38.699Z,101838.44
2019-01-20T12:23:07.943Z,101840.56
2019-01-20T12:25:41.008Z,101846.00
2019-01-20T12:28:10.074Z,101835.98
2019-01-20T12:30:39.149Z,101846.27
2019-01-20T12:33:08.247Z,101832.89
2019-01-20T12:35:37.296Z,101828.47
2019-01-20T12:38:06.359Z,101831.16
2019-01-20T12:40:35.458Z,101833.03
2019-01-20T12:43:04.553Z,101830.36
2019-01-20T12:45:33.723Z,101826.53
2019-01-20T12:48:02.730Z,101826.42
2019-01-20T12:50:31.795Z,101820.47
2019-01-20T12:53:00.859Z,101827.00
2019-01-20T12:55:29.979Z,101825.55
2019-01-20T12:57:59.035Z,101825.04
2019-01-20T13:00:28.109Z,101829.91
2019-01-20T13:02:57.188Z,101832.65
2019-01-20T13:05:26.248Z,101831.91
2019-01-20T13:07:55.312Z,101832.76
2019-01-20T13:10:24.511Z,101827.02
2019-01-20T13:12:53.555Z,101820.83
2019-01-20T13:15:23.592Z,101828.84
2019-01-20T13:17:52.686Z,101821.22
2019-01-20T13:20:23.460Z,101821.70
2019-01-20T13:22:52.527Z,101832.72
2019-01-20T13:25:24.288Z,101824.08
2019-01-20T13:27:53.450Z,101827.09
2019-01-20T13:30:23.231Z,101828.30
2019-01-20T13:32:52.340Z,101829.77
2019-01-20T13:35:36.002Z,101830.73
2019-01-20T13:38:05.882Z,101826.50
2019-01-20T13:40:34.953Z,101823.03
2019-01-20T13:43:04.048Z,101824.61
2019-01-20T13:45:33.134Z,101816.31
2019-01-20T13:48:02.197Z,101824.50
2019-01-20T13:50:31.261Z,101818.23
2019-01-20T13:53:00.538Z,101822.66
2019-01-20T13:55:43.413Z,101827.14
2019-01-20T13:58:12.497Z,101831.30
2019-01-20T14:00:41.542Z,101827.47
2019-01-20T14:03:10.603Z,101827.92
2019-01-20T14:05:46.567Z,101829.17
2019-01-20T14:08:15.613Z,101833.95
2019-01-20T14:10:44.674Z,101827.08
2019-01-20T14:13:13.780Z,101833.39
2019-01-20T14:15:42.842Z,101831.10
2019-01-20T14:18:11.890Z,101835.53
2019-01-20T14:20:40.986Z,101844.42
2019-01-20T14:23:10.055Z,101837.17
2019-01-20T14:25:41.066Z,101839.21
2019-01-20T14:28:10.157Z,101829.81
2019-01-20T14:30:39.216Z,101841.11
2019-01-20T14:33:08.283Z,101844.94
2019-01-20T14:35:37.391Z,101837.84
2019-01-20T14:38:06.451Z,101839.56
2019-01-20T14:40:35.513Z,101845.13
2019-01-20T14:43:04.635Z,101848.28
2019-01-20T14:45:42.063Z,101852.94
2019-01-20T14:48:11.137Z,101855.73
2019-01-20T14:50:40.247Z,101861.54
2019-01-20T14:53:09.305Z,101861.64
2019-01-20T14:55:39.408Z,101863.44
2019-01-20T14:58:08.481Z,101870.39
2019-01-20T15:00:37.556Z,101864.22
2019-01-20T15:03:07.141Z,101870.90
2019-01-20T15:05:36.188Z,101873.83
2019-01-20T15:08:05.251Z,101869.72
2019-01-20T15:10:34.340Z,101876.99
2019-01-20T15:13:03.412Z,101877.29
2019-01-20T15:15:35.376Z,101886.05
2019-01-20T15:18:04.482Z,101882.20
2019-01-20T15:20:33.636Z,101885.91
2019-01-20T15:23:02.672Z,101880.52
2019-01-20T15:25:36.974Z,101884.16
2019-01-20T15:28:06.063Z,101887.37
2019-01-20T15:30:35.142Z,101886.73
2019-01-20T15:33:04.200Z,101890.08
2019-01-20T15:35:42.984Z,101889.34
2019-01-20T15:38:12.038Z,101900.78
2019-01-20T15:40:41.096Z,101893.09
2019-01-20T15:43:10.191Z,101900.86
2019-01-20T15:45:39.260Z,101904.23
2019-01-20T15:48:08.340Z,101907.19
2019-01-20T15:50:37.421Z,101907.90
2019-01-20T15:53:06.472Z,101909.19
2019-01-20T15:55:51.844Z,101907.53
2019-01-20T15:58:20.912Z,101902.38
2019-01-20T16:00:49.972Z,101900.09
2019-01-20T16:03:19.066Z,101905.39
2019-01-20T16:05:48.128Z,101897.67
2019-01-20T16:08:17.189Z,101897.66
2019-01-20T16:10:46.279Z,101898.59
2019-01-20T16:13:15.343Z,101899.84
2019-01-20T16:15:44.405Z,101901.17
2019-01-20T16:18:14.411Z,101900.09
2019-01-20T16:20:42.592Z,101900.30
2019-01-20T16:23:11.656Z,101908.85
2019-01-20T16:25:42.757Z,101904.18
2019-01-20T16:28:11.824Z,101903.80
2019-01-20T16:30:40.902Z,101900.48
2019-01-20T16:33:10.017Z,101903.00
2019-01-20T16:35:39.092Z,101907.55
2019-01-20T16:38:08.153Z,101905.45
2019-01-20T16:40:37.290Z,101906.08
2019-01-20T16:43:06.364Z,101903.20
2019-01-20T16:45:41.634Z,101906.62
2019-01-20T16:48:04.565Z,101901.35
2019-01-20T16:50:33.617Z,101901.75
2019-01-20T16:53:02.675Z,101904.63
2019-01-20T16:55:44.787Z,101908.69
2019-01-20T16:58:13.856Z,101915.88
2019-01-20T17:00:42.924Z,101915.89
2019-01-20T17:03:12.013Z,101915.61
2019-01-20T17:05:41.085Z,101919.59
2019-01-20T17:08:10.203Z,101913.00
2019-01-20T17:10:39.334Z,101919.84
2019-01-20T17:13:08.450Z,101922.34
2019-01-20T17:15:39.842Z,101920.51
2019-01-20T17:18:06.844Z,101923.71
2019-01-20T17:20:35.946Z,101922.58
2019-01-20T17:23:05.005Z,101918.07
2019-01-20T17:28:39.318Z,101933.56
2019-01-20T17:31:08.406Z,101929.41
2019-01-20T17:33:37.488Z,101934.79
2019-01-20T17:36:08.522Z,101934.89
2019-01-20T17:38:38.796Z,101938.08
2019-01-20T17:41:07.884Z,101939.75
2019-01-20T17:43:36.920Z,101933.31
2019-01-20T17:46:06.059Z,101936.72
2019-01-20T17:48:35.121Z,101945.34
2019-01-20T17:51:04.185Z,101937.66
2019-01-20T17:53:33.275Z,101943.19
2019-01-20T17:56:02.364Z,101941.41
2019-01-20T17:58:31.431Z,101949.19
2019-01-20T18:01:00.532Z,101949.90
2019-01-20T18:03:29.602Z,101950.42
2019-01-20T18:05:59.613Z,101952.08
2019-01-20T18:08:28.743Z,101954.14
2019-01-20T18:10:57.832Z,101959.21
2019-01-20T18:13:26.916Z,101954.41
2019-01-20T18:16:04.249Z,101958.80
2019-01-20T18:18:33.322Z,101956.78
2019-01-20T18:21:02.409Z,101957.81
2019-01-20T18:23:31.504Z,101957.64
2019-01-20T18:26:00.563Z,101957.47
2019-01-20T18:28:29.632Z,101962.31
2019-01-20T18:30:58.747Z,101965.34
2019-01-20T18:33:27.824Z,101972.73
2019-01-20T18:35:56.901Z,101970.91
2019-01-20T18:38:26.108Z,101971.53
2019-01-20T18:40:55.189Z,101972.20
2019-01-20T18:43:24.273Z,101985.66
2019-01-20T18:46:01.283Z,101983.87
2019-01-20T18:48:23.465Z,101990.31
2019-01-20T18:50:52.537Z,101988.47
2019-01-20T18:53:21.666Z,101998.29
2019-01-20T18:55:50.743Z,101994.55
2019-01-20T18:58:20.113Z,102001.84
2019-01-20T19:00:49.188Z,102003.48
2019-01-20T19:03:18.271Z,102002.68
2019-01-20T19:06:01.276Z,102000.92
2019-01-20T19:08:30.370Z,102003.17
2019-01-20T19:10:59.421Z,102004.52
2019-01-20T19:13:28.520Z,102008.94
2019-01-20T19:15:57.598Z,102013.13
2019-01-20T19:18:26.672Z,102013.23
2019-01-20T19:20:55.952Z,102012.02
2019-01-20T19:23:25.020Z,102019.77
2019-01-20T19:25:54.116Z,102024.75
2019-01-20T19:28:23.223Z,102016.30
2019-01-20T19:30:52.298Z,102016.80
2019-01-20T19:33:21.360Z,102010.91
2019-01-20T19:35:50.504Z,102014.75
2019-01-20T19:38:19.588Z,102017.72
2019-01-20T19:40:49.440Z,102019.70
2019-01-20T19:43:18.780Z,102013.47
2019-01-20T19:45:47.629Z,102017.30
2019-01-20T19:48:20.168Z,102021.95
2019-01-20T19:50:45.815Z,102020.05
2019-01-20T19:53:14.903Z,102023.54
2019-01-20T19:55:43.969Z,102031.75
2019-01-20T19:58:13.066Z,102030.45
2019-01-20T20:00:42.143Z,102033.57
2019-01-20T20:03:11.218Z,102032.84
2019-01-20T20:05:41.358Z,102036.55
2019-01-20T20:08:10.444Z,102039.92
2019-01-20T20:10:39.505Z,102050.81
2019-01-20T20:13:08.629Z,102045.83
2019-01-20T20:15:37.701Z,102047.87
2019-01-20T20:18:06.777Z,102048.22
2019-01-20T20:20:35.886Z,102047.73
2019-01-20T20:23:04.985Z,102050.91
2019-01-20T20:25:34.079Z,102050.18
2019-01-20T20:28:03.616Z,102051.76
2019-01-20T20:30:32.711Z,102054.97
2019-01-20T20:33:01.809Z,102054.67
2019-01-20T20:35:30.916Z,102057.49
2019-01-20T20:38:00.001Z,102060.87
2019-01-20T20:40:29.079Z,102062.30
2019-01-20T20:42:58.983Z,102064.14
2019-01-20T20:45:28.072Z,102076.28
2019-01-20T20:47:57.158Z,102073.53
2019-01-20T20:50:26.294Z,102082.73
2019-01-20T20:52:55.372Z,102073.32
2019-01-20T20:55:32.533Z,102077.36
2019-01-20T20:58:01.610Z,102075.51
2019-01-20T21:00:31.624Z,102076.46
2019-01-20T21:03:00.716Z,102073.95
2019-01-20T21:05:29.798Z,102085.31
2019-01-20T21:07:58.865Z,102086.81
2019-01-20T21:10:28.010Z,102093.00
2019-01-20T21:12:57.086Z,102094.11
2019-01-20T21:15:26.166Z,102100.22
2019-01-20T21:17:55.281Z,102107.27
2019-01-20T21:20:24.347Z,102098.91
2019-01-20T21:22:53.418Z,102105.06
2019-01-20T21:25:22.519Z,102100.59
2019-01-20T21:27:53.845Z,102104.46
2019-01-20T21:30:23.941Z,102104.72
2019-01-20T21:32:53.023Z,102107.14
2019-01-20T21:35:22.115Z,102114.52
2019-01-20T21:37:51.211Z,102108.84
2019-01-20T21:40:20.295Z,102110.23
2019-01-20T21:42:49.387Z,102116.19
2019-01-20T21:45:19.524Z,102112.66
2019-01-20T21:47:48.609Z,102111.73
2019-01-20T21:50:17.752Z,102112.80
2019-01-20T21:52:46.983Z,102119.10
2019-01-20T21:55:16.132Z,102117.25
2019-01-20T21:57:45.287Z,102117.44
2019-01-20T22:00:14.473Z,102120.97
2019-01-20T22:02:43.615Z,102122.13
2019-01-20T22:05:12.838Z,102115.58
2019-01-20T22:07:41.963Z,102121.94
2019-01-20T22:10:12.740Z,102125.13
2019-01-20T22:12:41.946Z,102125.80
2019-01-20T22:15:11.195Z,102121.98
2019-01-20T22:17:40.441Z,102124.05
2019-01-20T22:20:09.656Z,102125.53
2019-01-20T22:22:38.810Z,102126.06
2019-01-20T22:25:07.987Z,102125.02
2019-01-20T22:27:37.206Z,102128.05
2019-01-20T22:30:07.164Z,102129.10
2019-01-20T22:32:36.337Z,102131.73
2019-01-20T22:35:05.520Z,102131.02
2019-01-20T22:37:34.771Z,102135.03
2019-01-20T22:40:04.006Z,102136.52
2019-01-20T22:42:33.147Z,102138.69
2019-01-20T22:45:02.311Z,102139.75
2019-01-20T22:47:31.469Z,102137.77
2019-01-20T22:50:00.733Z,102136.66
2019-01-20T22:52:29.960Z,102139.52
2019-01-20T22:54:59.361Z,102140.02
2019-01-20T22:57:28.675Z,102140.50
2019-01-20T22:59:58.210Z,102136.09
2019-01-20T23:02:28.634Z,102134.73
2019-01-20T23:04:57.360Z,102131.96
2019-01-20T23:07:27.992Z,102132.70
2019-01-20T23:09:56.378Z,102132.16
2019-01-20T23:12:25.512Z,102130.53
2019-01-20T23:14:54.964Z,102130.76
2019-01-20T23:17:24.377Z,102136.04
2019-01-20T23:19:53.319Z,102134.00
2019-01-20T23:22:23.030Z,102131.62
2019-01-20T23:24:52.416Z,102128.92
2019-01-20T23:27:27.516Z,102128.27
2019-01-20T23:29:57.993Z,102124.84
2019-01-20T23:32:28.944Z,102133.59
2019-01-20T23:34:59.284Z,102122.09
2019-01-20T23:37:27.664Z,102120.14
2019-01-20T23:39:56.744Z,102129.41
2019-01-20T23:42:26.263Z,102131.48
2019-01-20T23:44:55.643Z,102131.07
2019-01-20T23:47:25.569Z,102132.29
2019-01-20T23:49:57.061Z,102136.92
2019-01-20T23:52:30.149Z,102129.17
2019-01-20T23:55:02.710Z,102123.17
2019-01-20T23:57:29.440Z,102130.38
